sensor_id;sensor_type;location;lat;lon;timestamp;P1;durP1;ratioP1;P2;durP2;ratioP2
67902;SDS011;54708;43.612;1.568;2023-07-16T00:01:53;5.28;;;2.67;;
67902;SDS011;54708;43.612;1.568;2023-07-16T00:04:18;4.82;;;2.83;;
67902;SDS011;54708;43.612;1.568;2023-07-16T00:06:44;7.78;;;2.47;;
67902;SDS011;54708;43.612;1.568;2023-07-16T00:09:10;5.05;;;2.55;;
67902;SDS011;54708;43.612;1.568;2023-07-16T00:11:36;8.55;;;2.78;;
67902;SDS011;54708;43.612;1.568;2023-07-16T00:14:01;4.28;;;2.53;;
67902;SDS011;54708;43.612;1.568;2023-07-16T00:16:27;9.02;;;3.10;;
67902;SDS011;54708;43.612;1.568;2023-07-16T00:18:52;9.82;;;3.53;;
67902;SDS011;54708;43.612;1.568;2023-07-16T00:21:18;3.75;;;2.92;;
67902;SDS011;54708;43.612;1.568;2023-07-16T00:23:43;8.48;;;3.15;;
67902;SDS011;54708;43.612;1.568;2023-07-16T00:26:09;7.25;;;2.70;;
67902;SDS011;54708;43.612;1.568;2023-07-16T00:28:34;6.45;;;3.20;;
67902;SDS011;54708;43.612;1.568;2023-07-16T00:31:00;9.40;;;3.55;;
67902;SDS011;54708;43.612;1.568;2023-07-16T00:33:26;9.65;;;3.78;;
67902;SDS011;54708;43.612;1.568;2023-07-16T00:35:51;10.02;;;3.50;;
67902;SDS011;54708;43.612;1.568;2023-07-16T00:38:17;7.72;;;3.40;;
67902;SDS011;54708;43.612;1.568;2023-07-16T00:40:42;14.43;;;4.53;;
67902;SDS011;54708;43.612;1.568;2023-07-16T00:43:08;7.70;;;3.20;;
67902;SDS011;54708;43.612;1.568;2023-07-16T00:45:33;7.03;;;3.70;;
67902;SDS011;54708;43.612;1.568;2023-07-16T00:47:58;9.75;;;4.20;;
67902;SDS011;54708;43.612;1.568;2023-07-16T00:50:24;5.65;;;3.80;;
67902;SDS011;54708;43.612;1.568;2023-07-16T00:52:49;7.95;;;3.47;;
67902;SDS011;54708;43.612;1.568;2023-07-16T00:55:15;8.15;;;3.45;;
67902;SDS011;54708;43.612;1.568;2023-07-16T00:57:40;11.93;;;4.13;;
67902;SDS011;54708;43.612;1.568;2023-07-16T01:00:06;8.57;;;3.78;;
67902;SDS011;54708;43.612;1.568;2023-07-16T01:02:33;4.88;;;3.30;;
67902;SDS011;54708;43.612;1.568;2023-07-16T01:04:58;7.82;;;3.20;;
67902;SDS011;54708;43.612;1.568;2023-07-16T01:07:24;12.00;;;3.35;;
67902;SDS011;54708;43.612;1.568;2023-07-16T01:09:50;7.63;;;3.33;;
67902;SDS011;54708;43.612;1.568;2023-07-16T01:12:16;7.47;;;2.30;;
67902;SDS011;54708;43.612;1.568;2023-07-16T01:14:42;11.73;;;3.30;;
67902;SDS011;54708;43.612;1.568;2023-07-16T01:17:07;10.18;;;2.95;;
67902;SDS011;54708;43.612;1.568;2023-07-16T01:19:34;8.27;;;3.92;;
67902;SDS011;54708;43.612;1.568;2023-07-16T01:29:58;10.18;;;3.35;;
67902;SDS011;54708;43.612;1.568;2023-07-16T01:32:29;10.15;;;2.90;;
67902;SDS011;54708;43.612;1.568;2023-07-16T01:34:55;13.27;;;3.38;;
67902;SDS011;54708;43.612;1.568;2023-07-16T01:37:22;9.57;;;2.90;;
67902;SDS011;54708;43.612;1.568;2023-07-16T01:39:47;9.90;;;3.30;;
67902;SDS011;54708;43.612;1.568;2023-07-16T01:42:13;11.00;;;3.88;;
67902;SDS011;54708;43.612;1.568;2023-07-16T01:44:38;12.57;;;4.05;;
67902;SDS011;54708;43.612;1.568;2023-07-16T01:47:10;21.05;;;5.97;;
67902;SDS011;54708;43.612;1.568;2023-07-16T01:49:40;8.48;;;2.85;;
67902;SDS011;54708;43.612;1.568;2023-07-16T01:52:09;14.65;;;4.20;;
67902;SDS011;54708;43.612;1.568;2023-07-16T01:54:35;7.93;;;2.97;;
67902;SDS011;54708;43.612;1.568;2023-07-16T01:57:01;7.57;;;2.72;;
67902;SDS011;54708;43.612;1.568;2023-07-16T01:59:26;6.07;;;2.80;;
67902;SDS011;54708;43.612;1.568;2023-07-16T02:01:52;8.38;;;3.10;;
67902;SDS011;54708;43.612;1.568;2023-07-16T02:04:17;20.52;;;5.38;;
67902;SDS011;54708;43.612;1.568;2023-07-16T02:06:43;7.97;;;3.70;;
67902;SDS011;54708;43.612;1.568;2023-07-16T02:09:08;7.65;;;3.17;;
67902;SDS011;54708;43.612;1.568;2023-07-16T02:11:34;12.65;;;3.38;;
67902;SDS011;54708;43.612;1.568;2023-07-16T02:14:00;9.20;;;2.83;;
67902;SDS011;54708;43.612;1.568;2023-07-16T02:16:25;12.55;;;3.38;;
67902;SDS011;54708;43.612;1.568;2023-07-16T02:18:50;8.40;;;3.47;;
67902;SDS011;54708;43.612;1.568;2023-07-16T02:21:16;6.22;;;2.78;;
67902;SDS011;54708;43.612;1.568;2023-07-16T02:23:41;10.65;;;3.10;;
67902;SDS011;54708;43.612;1.568;2023-07-16T02:26:06;8.18;;;3.30;;
67902;SDS011;54708;43.612;1.568;2023-07-16T02:28:32;9.75;;;3.38;;
67902;SDS011;54708;43.612;1.568;2023-07-16T02:30:58;8.15;;;2.95;;
67902;SDS011;54708;43.612;1.568;2023-07-16T02:33:23;7.95;;;2.90;;
67902;SDS011;54708;43.612;1.568;2023-07-16T02:35:49;8.55;;;3.58;;
67902;SDS011;54708;43.612;1.568;2023-07-16T02:38:16;8.27;;;3.38;;
67902;SDS011;54708;43.612;1.568;2023-07-16T02:40:42;11.32;;;3.58;;
67902;SDS011;54708;43.612;1.568;2023-07-16T02:43:11;12.10;;;3.47;;
67902;SDS011;54708;43.612;1.568;2023-07-16T02:45:36;13.57;;;3.00;;
67902;SDS011;54708;43.612;1.568;2023-07-16T02:48:02;7.90;;;3.00;;
67902;SDS011;54708;43.612;1.568;2023-07-16T02:50:28;12.38;;;4.00;;
67902;SDS011;54708;43.612;1.568;2023-07-16T02:52:53;8.65;;;2.90;;
67902;SDS011;54708;43.612;1.568;2023-07-16T02:55:19;11.55;;;3.13;;
67902;SDS011;54708;43.612;1.568;2023-07-16T02:57:44;9.57;;;3.40;;
67902;SDS011;54708;43.612;1.568;2023-07-16T03:00:10;12.45;;;4.10;;
67902;SDS011;54708;43.612;1.568;2023-07-16T03:02:35;8.60;;;3.03;;
67902;SDS011;54708;43.612;1.568;2023-07-16T03:05:01;9.73;;;3.38;;
67902;SDS011;54708;43.612;1.568;2023-07-16T03:07:27;7.68;;;3.20;;
67902;SDS011;54708;43.612;1.568;2023-07-16T03:09:52;13.30;;;3.55;;
67902;SDS011;54708;43.612;1.568;2023-07-16T03:12:18;11.88;;;3.75;;
67902;SDS011;54708;43.612;1.568;2023-07-16T03:14:43;9.38;;;2.95;;
67902;SDS011;54708;43.612;1.568;2023-07-16T03:17:08;14.07;;;4.68;;
67902;SDS011;54708;43.612;1.568;2023-07-16T03:19:34;13.23;;;3.83;;
67902;SDS011;54708;43.612;1.568;2023-07-16T03:21:59;14.07;;;4.07;;
67902;SDS011;54708;43.612;1.568;2023-07-16T03:24:25;9.10;;;3.70;;
67902;SDS011;54708;43.612;1.568;2023-07-16T03:26:50;14.55;;;3.95;;
67902;SDS011;54708;43.612;1.568;2023-07-16T03:29:15;11.82;;;3.55;;
67902;SDS011;54708;43.612;1.568;2023-07-16T03:31:41;5.72;;;3.10;;
67902;SDS011;54708;43.612;1.568;2023-07-16T03:34:06;8.40;;;3.30;;
67902;SDS011;54708;43.612;1.568;2023-07-16T03:36:31;11.05;;;3.42;;
67902;SDS011;54708;43.612;1.568;2023-07-16T03:38:57;12.68;;;3.13;;
67902;SDS011;54708;43.612;1.568;2023-07-16T03:41:22;11.63;;;3.05;;
67902;SDS011;54708;43.612;1.568;2023-07-16T03:43:47;10.38;;;3.10;;
67902;SDS011;54708;43.612;1.568;2023-07-16T03:46:13;9.50;;;3.75;;
67902;SDS011;54708;43.612;1.568;2023-07-16T03:48:38;10.80;;;4.13;;
67902;SDS011;54708;43.612;1.568;2023-07-16T03:51:04;9.00;;;3.30;;
67902;SDS011;54708;43.612;1.568;2023-07-16T03:53:29;6.47;;;3.28;;
67902;SDS011;54708;43.612;1.568;2023-07-16T03:55:55;7.50;;;2.88;;
67902;SDS011;54708;43.612;1.568;2023-07-16T03:58:20;7.90;;;3.53;;
67902;SDS011;54708;43.612;1.568;2023-07-16T04:00:45;6.45;;;3.40;;
67902;SDS011;54708;43.612;1.568;2023-07-16T04:03:11;11.13;;;3.60;;
67902;SDS011;54708;43.612;1.568;2023-07-16T04:05:36;10.10;;;4.30;;
67902;SDS011;54708;43.612;1.568;2023-07-16T04:08:02;9.20;;;2.95;;
67902;SDS011;54708;43.612;1.568;2023-07-16T04:10:27;11.55;;;3.65;;
67902;SDS011;54708;43.612;1.568;2023-07-16T04:12:52;12.43;;;3.97;;
67902;SDS011;54708;43.612;1.568;2023-07-16T04:15:18;12.95;;;3.85;;
67902;SDS011;54708;43.612;1.568;2023-07-16T04:17:43;10.43;;;3.45;;
67902;SDS011;54708;43.612;1.568;2023-07-16T04:20:09;12.40;;;3.00;;
67902;SDS011;54708;43.612;1.568;2023-07-16T04:22:34;10.50;;;3.17;;
67902;SDS011;54708;43.612;1.568;2023-07-16T04:25:01;7.00;;;2.95;;
67902;SDS011;54708;43.612;1.568;2023-07-16T04:27:26;11.25;;;3.22;;
67902;SDS011;54708;43.612;1.568;2023-07-16T04:29:51;13.80;;;3.55;;
67902;SDS011;54708;43.612;1.568;2023-07-16T04:32:17;12.57;;;4.82;;
67902;SDS011;54708;43.612;1.568;2023-07-16T04:34:42;8.80;;;3.17;;
67902;SDS011;54708;43.612;1.568;2023-07-16T04:37:08;11.10;;;3.22;;
67902;SDS011;54708;43.612;1.568;2023-07-16T04:39:33;8.02;;;3.15;;
67902;SDS011;54708;43.612;1.568;2023-07-16T04:41:58;17.98;;;5.55;;
67902;SDS011;54708;43.612;1.568;2023-07-16T04:44:24;12.25;;;3.20;;
67902;SDS011;54708;43.612;1.568;2023-07-16T04:46:49;10.52;;;3.67;;
67902;SDS011;54708;43.612;1.568;2023-07-16T04:49:14;10.45;;;3.30;;
67902;SDS011;54708;43.612;1.568;2023-07-16T04:51:40;9.70;;;3.72;;
67902;SDS011;54708;43.612;1.568;2023-07-16T04:54:05;11.30;;;3.28;;
67902;SDS011;54708;43.612;1.568;2023-07-16T04:56:30;10.43;;;3.70;;
67902;SDS011;54708;43.612;1.568;2023-07-16T04:58:56;13.27;;;3.92;;
67902;SDS011;54708;43.612;1.568;2023-07-16T05:01:21;7.25;;;3.47;;
67902;SDS011;54708;43.612;1.568;2023-07-16T05:03:47;16.08;;;3.83;;
67902;SDS011;54708;43.612;1.568;2023-07-16T05:06:12;12.50;;;3.45;;
67902;SDS011;54708;43.612;1.568;2023-07-16T05:08:37;9.98;;;4.05;;
67902;SDS011;54708;43.612;1.568;2023-07-16T05:11:03;8.63;;;3.30;;
67902;SDS011;54708;43.612;1.568;2023-07-16T05:13:28;9.50;;;3.42;;
67902;SDS011;54708;43.612;1.568;2023-07-16T05:15:54;8.18;;;3.20;;
67902;SDS011;54708;43.612;1.568;2023-07-16T05:18:19;16.98;;;4.28;;
67902;SDS011;54708;43.612;1.568;2023-07-16T05:20:49;12.20;;;3.55;;
67902;SDS011;54708;43.612;1.568;2023-07-16T05:23:14;7.22;;;3.72;;
67902;SDS011;54708;43.612;1.568;2023-07-16T05:25:49;8.52;;;3.60;;
67902;SDS011;54708;43.612;1.568;2023-07-16T05:28:15;15.60;;;3.83;;
67902;SDS011;54708;43.612;1.568;2023-07-16T05:30:41;10.70;;;4.35;;
67902;SDS011;54708;43.612;1.568;2023-07-16T05:33:06;8.52;;;3.80;;
67902;SDS011;54708;43.612;1.568;2023-07-16T05:35:32;9.60;;;3.45;;
67902;SDS011;54708;43.612;1.568;2023-07-16T05:37:57;9.80;;;3.53;;
67902;SDS011;54708;43.612;1.568;2023-07-16T05:40:22;10.98;;;3.70;;
67902;SDS011;54708;43.612;1.568;2023-07-16T05:42:48;10.20;;;3.40;;
67902;SDS011;54708;43.612;1.568;2023-07-16T05:45:13;14.00;;;4.25;;
67902;SDS011;54708;43.612;1.568;2023-07-16T05:47:38;7.90;;;3.95;;
67902;SDS011;54708;43.612;1.568;2023-07-16T05:50:04;10.75;;;3.47;;
67902;SDS011;54708;43.612;1.568;2023-07-16T05:52:30;9.75;;;3.60;;
67902;SDS011;54708;43.612;1.568;2023-07-16T05:54:56;12.15;;;4.57;;
67902;SDS011;54708;43.612;1.568;2023-07-16T05:57:22;11.15;;;3.85;;
67902;SDS011;54708;43.612;1.568;2023-07-16T05:59:47;13.75;;;4.35;;
67902;SDS011;54708;43.612;1.568;2023-07-16T06:02:12;5.80;;;3.13;;
67902;SDS011;54708;43.612;1.568;2023-07-16T06:04:38;7.65;;;3.42;;
67902;SDS011;54708;43.612;1.568;2023-07-16T06:07:03;12.45;;;4.63;;
67902;SDS011;54708;43.612;1.568;2023-07-16T06:09:29;12.18;;;3.47;;
67902;SDS011;54708;43.612;1.568;2023-07-16T06:11:54;12.10;;;4.00;;
67902;SDS011;54708;43.612;1.568;2023-07-16T06:14:20;10.82;;;3.60;;
67902;SDS011;54708;43.612;1.568;2023-07-16T06:16:45;9.68;;;3.47;;
67902;SDS011;54708;43.612;1.568;2023-07-16T06:19:10;11.00;;;3.50;;
67902;SDS011;54708;43.612;1.568;2023-07-16T06:21:36;14.02;;;3.75;;
67902;SDS011;54708;43.612;1.568;2023-07-16T06:24:01;20.90;;;4.50;;
67902;SDS011;54708;43.612;1.568;2023-07-16T06:26:26;13.27;;;3.42;;
67902;SDS011;54708;43.612;1.568;2023-07-16T06:28:52;11.48;;;3.50;;
67902;SDS011;54708;43.612;1.568;2023-07-16T06:31:17;15.45;;;3.60;;
67902;SDS011;54708;43.612;1.568;2023-07-16T06:33:43;10.65;;;3.72;;
67902;SDS011;54708;43.612;1.568;2023-07-16T06:36:08;12.23;;;3.28;;
67902;SDS011;54708;43.612;1.568;2023-07-16T06:38:34;10.93;;;3.38;;
67902;SDS011;54708;43.612;1.568;2023-07-16T06:40:59;9.55;;;3.50;;
67902;SDS011;54708;43.612;1.568;2023-07-16T06:43:25;14.60;;;3.83;;
67902;SDS011;54708;43.612;1.568;2023-07-16T06:45:50;8.90;;;2.97;;
67902;SDS011;54708;43.612;1.568;2023-07-16T06:48:19;19.10;;;5.35;;
67902;SDS011;54708;43.612;1.568;2023-07-16T06:50:44;9.07;;;3.47;;
67902;SDS011;54708;43.612;1.568;2023-07-16T06:53:10;14.63;;;4.53;;
67902;SDS011;54708;43.612;1.568;2023-07-16T06:55:36;9.75;;;3.60;;
67902;SDS011;54708;43.612;1.568;2023-07-16T06:58:01;13.18;;;3.38;;
67902;SDS011;54708;43.612;1.568;2023-07-16T07:00:28;8.05;;;2.88;;
67902;SDS011;54708;43.612;1.568;2023-07-16T07:02:53;8.02;;;2.80;;
67902;SDS011;54708;43.612;1.568;2023-07-16T07:05:19;7.30;;;2.55;;
67902;SDS011;54708;43.612;1.568;2023-07-16T07:07:44;7.93;;;2.72;;
67902;SDS011;54708;43.612;1.568;2023-07-16T07:10:12;12.35;;;3.03;;
67902;SDS011;54708;43.612;1.568;2023-07-16T07:12:38;12.75;;;3.95;;
67902;SDS011;54708;43.612;1.568;2023-07-16T07:15:05;11.95;;;3.20;;
67902;SDS011;54708;43.612;1.568;2023-07-16T07:17:31;8.05;;;3.15;;
67902;SDS011;54708;43.612;1.568;2023-07-16T07:19:57;10.93;;;3.13;;
67902;SDS011;54708;43.612;1.568;2023-07-16T07:22:22;7.38;;;3.08;;
67902;SDS011;54708;43.612;1.568;2023-07-16T07:24:48;9.32;;;2.70;;
67902;SDS011;54708;43.612;1.568;2023-07-16T07:27:14;8.52;;;3.03;;
67902;SDS011;54708;43.612;1.568;2023-07-16T07:29:39;11.98;;;3.08;;
67902;SDS011;54708;43.612;1.568;2023-07-16T07:32:05;7.15;;;2.47;;
67902;SDS011;54708;43.612;1.568;2023-07-16T07:34:31;10.00;;;2.97;;
67902;SDS011;54708;43.612;1.568;2023-07-16T07:36:56;6.93;;;2.60;;
67902;SDS011;54708;43.612;1.568;2023-07-16T07:39:21;30.92;;;4.30;;
67902;SDS011;54708;43.612;1.568;2023-07-16T07:41:47;9.88;;;2.92;;
67902;SDS011;54708;43.612;1.568;2023-07-16T07:44:12;9.65;;;3.17;;
67902;SDS011;54708;43.612;1.568;2023-07-16T07:46:38;10.93;;;2.70;;
67902;SDS011;54708;43.612;1.568;2023-07-16T07:49:03;7.80;;;2.60;;
67902;SDS011;54708;43.612;1.568;2023-07-16T07:51:28;12.98;;;3.90;;
67902;SDS011;54708;43.612;1.568;2023-07-16T07:53:54;8.98;;;2.50;;
67902;SDS011;54708;43.612;1.568;2023-07-16T07:56:19;5.38;;;2.50;;
67902;SDS011;54708;43.612;1.568;2023-07-16T07:58:44;13.82;;;2.83;;
67902;SDS011;54708;43.612;1.568;2023-07-16T08:01:10;7.13;;;2.00;;
67902;SDS011;54708;43.612;1.568;2023-07-16T08:03:35;8.30;;;3.20;;
67902;SDS011;54708;43.612;1.568;2023-07-16T08:06:01;7.75;;;2.38;;
67902;SDS011;54708;43.612;1.568;2023-07-16T08:08:26;5.55;;;2.63;;
67902;SDS011;54708;43.612;1.568;2023-07-16T08:10:52;10.98;;;2.40;;
67902;SDS011;54708;43.612;1.568;2023-07-16T08:13:18;4.88;;;1.63;;
67902;SDS011;54708;43.612;1.568;2023-07-16T08:15:43;6.35;;;2.30;;
67902;SDS011;54708;43.612;1.568;2023-07-16T08:18:08;12.85;;;2.92;;
67902;SDS011;54708;43.612;1.568;2023-07-16T08:20:35;2.40;;;1.95;;
67902;SDS011;54708;43.612;1.568;2023-07-16T08:23:01;9.43;;;3.00;;
67902;SDS011;54708;43.612;1.568;2023-07-16T08:25:26;13.13;;;2.72;;
67902;SDS011;54708;43.612;1.568;2023-07-16T08:27:52;9.85;;;1.98;;
67902;SDS011;54708;43.612;1.568;2023-07-16T08:30:17;4.85;;;1.88;;
67902;SDS011;54708;43.612;1.568;2023-07-16T08:32:42;7.88;;;2.50;;
67902;SDS011;54708;43.612;1.568;2023-07-16T08:35:08;6.82;;;2.00;;
67902;SDS011;54708;43.612;1.568;2023-07-16T08:40:06;10.75;;;3.05;;
67902;SDS011;54708;43.612;1.568;2023-07-16T08:42:31;11.27;;;2.65;;
67902;SDS011;54708;43.612;1.568;2023-07-16T08:44:57;12.27;;;3.67;;
67902;SDS011;54708;43.612;1.568;2023-07-16T08:47:23;7.68;;;2.05;;
67902;SDS011;54708;43.612;1.568;2023-07-16T08:49:54;7.95;;;2.45;;
67902;SDS011;54708;43.612;1.568;2023-07-16T08:52:20;5.28;;;2.42;;
67902;SDS011;54708;43.612;1.568;2023-07-16T08:54:46;10.63;;;2.03;;
67902;SDS011;54708;43.612;1.568;2023-07-16T08:57:12;5.93;;;2.28;;
67902;SDS011;54708;43.612;1.568;2023-07-16T08:59:37;4.85;;;1.90;;
67902;SDS011;54708;43.612;1.568;2023-07-16T09:02:03;4.18;;;1.80;;
67902;SDS011;54708;43.612;1.568;2023-07-16T09:04:28;11.07;;;2.28;;
67902;SDS011;54708;43.612;1.568;2023-07-16T09:06:55;4.50;;;1.95;;
67902;SDS011;54708;43.612;1.568;2023-07-16T09:09:23;3.08;;;1.70;;
67902;SDS011;54708;43.612;1.568;2023-07-16T09:11:49;6.60;;;2.15;;
67902;SDS011;54708;43.612;1.568;2023-07-16T09:14:18;9.75;;;2.05;;
67902;SDS011;54708;43.612;1.568;2023-07-16T09:16:47;7.15;;;1.77;;
67902;SDS011;54708;43.612;1.568;2023-07-16T09:19:15;6.47;;;2.00;;
67902;SDS011;54708;43.612;1.568;2023-07-16T09:21:45;5.85;;;1.80;;
67902;SDS011;54708;43.612;1.568;2023-07-16T09:24:11;3.90;;;1.80;;
67902;SDS011;54708;43.612;1.568;2023-07-16T09:26:37;3.20;;;1.90;;
67902;SDS011;54708;43.612;1.568;2023-07-16T09:29:06;4.57;;;1.73;;
67902;SDS011;54708;43.612;1.568;2023-07-16T09:31:32;3.83;;;1.92;;
67902;SDS011;54708;43.612;1.568;2023-07-16T09:33:58;5.18;;;2.20;;
67902;SDS011;54708;43.612;1.568;2023-07-16T09:36:26;7.28;;;1.85;;
67902;SDS011;54708;43.612;1.568;2023-07-16T09:38:54;5.38;;;2.05;;
67902;SDS011;54708;43.612;1.568;2023-07-16T09:41:21;4.28;;;2.58;;
67902;SDS011;54708;43.612;1.568;2023-07-16T09:43:46;5.05;;;1.67;;
67902;SDS011;54708;43.612;1.568;2023-07-16T09:46:12;6.72;;;2.28;;
67902;SDS011;54708;43.612;1.568;2023-07-16T09:48:37;9.48;;;2.03;;
67902;SDS011;54708;43.612;1.568;2023-07-16T09:51:03;4.35;;;1.50;;
67902;SDS011;54708;43.612;1.568;2023-07-16T09:53:30;4.30;;;1.75;;
67902;SDS011;54708;43.612;1.568;2023-07-16T09:55:56;3.60;;;1.98;;
67902;SDS011;54708;43.612;1.568;2023-07-16T09:58:22;4.05;;;1.52;;
67902;SDS011;54708;43.612;1.568;2023-07-16T10:00:48;5.28;;;1.98;;
67902;SDS011;54708;43.612;1.568;2023-07-16T10:03:14;6.35;;;1.85;;
67902;SDS011;54708;43.612;1.568;2023-07-16T10:05:40;5.72;;;2.00;;
67902;SDS011;54708;43.612;1.568;2023-07-16T10:08:14;5.57;;;2.65;;
67902;SDS011;54708;43.612;1.568;2023-07-16T10:10:42;3.70;;;2.08;;
67902;SDS011;54708;43.612;1.568;2023-07-16T10:13:16;6.03;;;2.40;;
67902;SDS011;54708;43.612;1.568;2023-07-16T10:15:52;2.55;;;1.38;;
67902;SDS011;54708;43.612;1.568;2023-07-16T10:20:50;4.40;;;1.58;;
67902;SDS011;54708;43.612;1.568;2023-07-16T10:23:17;5.60;;;1.80;;
67902;SDS011;54708;43.612;1.568;2023-07-16T10:25:59;4.57;;;1.80;;
67902;SDS011;54708;43.612;1.568;2023-07-16T10:28:25;3.80;;;1.85;;
67902;SDS011;54708;43.612;1.568;2023-07-16T10:30:50;5.55;;;1.67;;
67902;SDS011;54708;43.612;1.568;2023-07-16T10:33:16;5.55;;;1.70;;
67902;SDS011;54708;43.612;1.568;2023-07-16T10:35:42;5.97;;;1.80;;
67902;SDS011;54708;43.612;1.568;2023-07-16T10:38:08;5.55;;;2.38;;
67902;SDS011;54708;43.612;1.568;2023-07-16T10:40:33;4.57;;;1.65;;
67902;SDS011;54708;43.612;1.568;2023-07-16T10:43:05;7.93;;;2.13;;
67902;SDS011;54708;43.612;1.568;2023-07-16T10:45:31;7.72;;;1.90;;
67902;SDS011;54708;43.612;1.568;2023-07-16T10:47:56;6.28;;;2.22;;
67902;SDS011;54708;43.612;1.568;2023-07-16T10:50:21;5.70;;;2.35;;
67902;SDS011;54708;43.612;1.568;2023-07-16T10:52:56;4.40;;;1.77;;
67902;SDS011;54708;43.612;1.568;2023-07-16T10:55:22;3.90;;;1.92;;
67902;SDS011;54708;43.612;1.568;2023-07-16T10:57:49;6.32;;;2.25;;
67902;SDS011;54708;43.612;1.568;2023-07-16T11:00:15;5.32;;;2.20;;
67902;SDS011;54708;43.612;1.568;2023-07-16T11:02:41;5.63;;;1.85;;
67902;SDS011;54708;43.612;1.568;2023-07-16T11:05:12;4.93;;;1.67;;
67902;SDS011;54708;43.612;1.568;2023-07-16T11:07:38;7.00;;;2.10;;
67902;SDS011;54708;43.612;1.568;2023-07-16T11:10:08;4.75;;;1.60;;
67902;SDS011;54708;43.612;1.568;2023-07-16T11:12:33;3.78;;;1.50;;
67902;SDS011;54708;43.612;1.568;2023-07-16T11:14:59;6.70;;;2.13;;
67902;SDS011;54708;43.612;1.568;2023-07-16T11:17:24;5.22;;;1.80;;
67902;SDS011;54708;43.612;1.568;2023-07-16T11:19:50;5.18;;;1.30;;
67902;SDS011;54708;43.612;1.568;2023-07-16T11:22:16;6.57;;;1.95;;
67902;SDS011;54708;43.612;1.568;2023-07-16T11:24:46;5.30;;;2.13;;
67902;SDS011;54708;43.612;1.568;2023-07-16T11:27:21;5.90;;;1.55;;
67902;SDS011;54708;43.612;1.568;2023-07-16T11:29:49;4.88;;;2.15;;
67902;SDS011;54708;43.612;1.568;2023-07-16T11:32:32;3.72;;;2.13;;
67902;SDS011;54708;43.612;1.568;2023-07-16T11:35:02;2.92;;;1.55;;
67902;SDS011;54708;43.612;1.568;2023-07-16T11:37:33;4.13;;;1.98;;
67902;SDS011;54708;43.612;1.568;2023-07-16T11:42:32;5.90;;;2.30;;
67902;SDS011;54708;43.612;1.568;2023-07-16T11:44:58;2.85;;;1.40;;
67902;SDS011;54708;43.612;1.568;2023-07-16T11:47:25;3.50;;;2.13;;
67902;SDS011;54708;43.612;1.568;2023-07-16T11:49:50;4.10;;;1.60;;
67902;SDS011;54708;43.612;1.568;2023-07-16T11:52:23;4.38;;;1.85;;
67902;SDS011;54708;43.612;1.568;2023-07-16T11:54:50;10.02;;;2.35;;
67902;SDS011;54708;43.612;1.568;2023-07-16T11:57:24;6.75;;;1.95;;
67902;SDS011;54708;43.612;1.568;2023-07-16T11:59:50;6.65;;;2.10;;
67902;SDS011;54708;43.612;1.568;2023-07-16T12:02:15;3.78;;;1.80;;
67902;SDS011;54708;43.612;1.568;2023-07-16T12:04:40;4.72;;;1.60;;
67902;SDS011;54708;43.612;1.568;2023-07-16T12:07:06;5.15;;;1.95;;
67902;SDS011;54708;43.612;1.568;2023-07-16T12:09:32;4.55;;;2.05;;
67902;SDS011;54708;43.612;1.568;2023-07-16T12:11:57;5.03;;;1.85;;
67902;SDS011;54708;43.612;1.568;2023-07-16T12:14:23;4.32;;;1.58;;
67902;SDS011;54708;43.612;1.568;2023-07-16T12:16:48;2.95;;;1.70;;
67902;SDS011;54708;43.612;1.568;2023-07-16T12:19:14;3.88;;;1.50;;
67902;SDS011;54708;43.612;1.568;2023-07-16T12:21:39;3.00;;;1.75;;
67902;SDS011;54708;43.612;1.568;2023-07-16T12:24:05;4.20;;;2.30;;
67902;SDS011;54708;43.612;1.568;2023-07-16T12:26:30;4.35;;;2.00;;
67902;SDS011;54708;43.612;1.568;2023-07-16T12:28:56;4.20;;;1.80;;
67902;SDS011;54708;43.612;1.568;2023-07-16T12:31:21;6.35;;;1.90;;
67902;SDS011;54708;43.612;1.568;2023-07-16T12:33:47;4.15;;;1.80;;
67902;SDS011;54708;43.612;1.568;2023-07-16T12:36:12;9.73;;;2.00;;
67902;SDS011;54708;43.612;1.568;2023-07-16T12:38:38;6.07;;;2.17;;
67902;SDS011;54708;43.612;1.568;2023-07-16T12:41:03;3.95;;;1.48;;
67902;SDS011;54708;43.612;1.568;2023-07-16T12:43:29;2.40;;;1.40;;
67902;SDS011;54708;43.612;1.568;2023-07-16T12:45:54;7.97;;;2.35;;
67902;SDS011;54708;43.612;1.568;2023-07-16T12:48:20;4.70;;;1.67;;
67902;SDS011;54708;43.612;1.568;2023-07-16T12:50:45;6.13;;;2.08;;
67902;SDS011;54708;43.612;1.568;2023-07-16T12:53:10;4.93;;;1.98;;
67902;SDS011;54708;43.612;1.568;2023-07-16T12:55:36;3.42;;;2.00;;
67902;SDS011;54708;43.612;1.568;2023-07-16T12:58:02;2.95;;;1.88;;
67902;SDS011;54708;43.612;1.568;2023-07-16T13:00:27;8.55;;;2.42;;
67902;SDS011;54708;43.612;1.568;2023-07-16T13:02:53;7.57;;;2.13;;
67902;SDS011;54708;43.612;1.568;2023-07-16T13:05:18;3.08;;;2.15;;
67902;SDS011;54708;43.612;1.568;2023-07-16T13:07:44;4.35;;;1.48;;
67902;SDS011;54708;43.612;1.568;2023-07-16T13:10:09;4.95;;;2.05;;
67902;SDS011;54708;43.612;1.568;2023-07-16T13:12:35;5.47;;;2.35;;
67902;SDS011;54708;43.612;1.568;2023-07-16T13:15:00;5.20;;;2.30;;
67902;SDS011;54708;43.612;1.568;2023-07-16T13:17:26;5.95;;;1.95;;
67902;SDS011;54708;43.612;1.568;2023-07-16T13:19:51;3.83;;;1.92;;
67902;SDS011;54708;43.612;1.568;2023-07-16T13:22:17;4.70;;;1.60;;
67902;SDS011;54708;43.612;1.568;2023-07-16T13:24:42;5.13;;;1.88;;
67902;SDS011;54708;43.612;1.568;2023-07-16T13:27:09;4.45;;;2.05;;
67902;SDS011;54708;43.612;1.568;2023-07-16T13:29:35;3.80;;;1.85;;
67902;SDS011;54708;43.612;1.568;2023-07-16T13:32:00;4.75;;;1.70;;
67902;SDS011;54708;43.612;1.568;2023-07-16T13:34:26;3.90;;;1.80;;
67902;SDS011;54708;43.612;1.568;2023-07-16T13:36:51;7.35;;;2.03;;
67902;SDS011;54708;43.612;1.568;2023-07-16T13:39:17;3.33;;;1.60;;
67902;SDS011;54708;43.612;1.568;2023-07-16T13:41:42;4.97;;;2.25;;
67902;SDS011;54708;43.612;1.568;2023-07-16T13:44:07;3.10;;;1.40;;
67902;SDS011;54708;43.612;1.568;2023-07-16T13:46:33;5.55;;;2.15;;
67902;SDS011;54708;43.612;1.568;2023-07-16T13:48:58;5.93;;;1.75;;
67902;SDS011;54708;43.612;1.568;2023-07-16T13:51:25;3.05;;;1.52;;
67902;SDS011;54708;43.612;1.568;2023-07-16T13:53:51;5.13;;;2.20;;
67902;SDS011;54708;43.612;1.568;2023-07-16T13:56:16;6.30;;;1.98;;
67902;SDS011;54708;43.612;1.568;2023-07-16T13:58:41;8.10;;;2.05;;
67902;SDS011;54708;43.612;1.568;2023-07-16T14:01:07;4.93;;;1.98;;
67902;SDS011;54708;43.612;1.568;2023-07-16T14:03:32;3.50;;;1.77;;
67902;SDS011;54708;43.612;1.568;2023-07-16T14:05:57;6.35;;;1.90;;
67902;SDS011;54708;43.612;1.568;2023-07-16T14:08:23;3.33;;;1.60;;
67902;SDS011;54708;43.612;1.568;2023-07-16T14:10:48;3.03;;;1.70;;
67902;SDS011;54708;43.612;1.568;2023-07-16T14:13:14;6.30;;;2.03;;
67902;SDS011;54708;43.612;1.568;2023-07-16T14:15:40;5.03;;;1.65;;
67902;SDS011;54708;43.612;1.568;2023-07-16T14:18:06;1.67;;;1.45;;
67902;SDS011;54708;43.612;1.568;2023-07-16T14:20:31;5.80;;;2.60;;
67902;SDS011;54708;43.612;1.568;2023-07-16T14:22:57;5.68;;;2.10;;
67902;SDS011;54708;43.612;1.568;2023-07-16T14:25:22;4.35;;;1.95;;
67902;SDS011;54708;43.612;1.568;2023-07-16T14:27:48;4.72;;;1.40;;
67902;SDS011;54708;43.612;1.568;2023-07-16T14:30:13;3.08;;;1.35;;
67902;SDS011;54708;43.612;1.568;2023-07-16T14:32:38;4.47;;;1.80;;
67902;SDS011;54708;43.612;1.568;2023-07-16T14:35:04;6.70;;;2.65;;
67902;SDS011;54708;43.612;1.568;2023-07-16T14:37:30;7.03;;;1.88;;
67902;SDS011;54708;43.612;1.568;2023-07-16T14:39:55;4.45;;;2.25;;
67902;SDS011;54708;43.612;1.568;2023-07-16T14:42:20;2.95;;;2.00;;
67902;SDS011;54708;43.612;1.568;2023-07-16T14:44:46;5.85;;;2.42;;
67902;SDS011;54708;43.612;1.568;2023-07-16T14:47:12;5.50;;;1.95;;
67902;SDS011;54708;43.612;1.568;2023-07-16T14:49:37;5.03;;;2.28;;
67902;SDS011;54708;43.612;1.568;2023-07-16T14:52:02;6.25;;;2.22;;